sensor_id;sensor_type;location;lat;lon;timestamp;temperature;humidity
69626;DHT22;56847;51.984;5.088;2023-04-06T01:13:59;9.20;53.90
69626;DHT22;56847;51.984;5.088;2023-04-06T01:16:46;9.10;54.00
69626;DHT22;56847;51.984;5.088;2023-04-06T01:19:16;9.10;54.10
69626;DHT22;56847;51.984;5.088;2023-04-06T01:21:47;9.20;54.00
69626;DHT22;56847;51.984;5.088;2023-04-06T01:24:22;9.20;54.10
69626;DHT22;56847;51.984;5.088;2023-04-06T01:27:02;9.20;54.00
69626;DHT22;56847;51.984;5.088;2023-04-06T01:29:58;9.30;53.80
69626;DHT22;56847;51.984;5.088;2023-04-06T01:32:48;9.30;54.00
69626;DHT22;56847;51.984;5.088;2023-04-06T01:35:22;9.30;54.00
69626;DHT22;56847;51.984;5.088;2023-04-06T01:38:05;9.30;53.80
69626;DHT22;56847;51.984;5.088;2023-04-06T01:40:34;9.30;53.80
69626;DHT22;56847;51.984;5.088;2023-04-06T01:43:02;9.30;53.80
69626;DHT22;56847;51.984;5.088;2023-04-06T01:45:34;9.30;53.90
69626;DHT22;56847;51.984;5.088;2023-04-06T01:48:13;9.30;53.90
69626;DHT22;56847;51.984;5.088;2023-04-06T01:50:41;9.30;54.00
69626;DHT22;56847;51.984;5.088;2023-04-06T01:53:10;9.30;53.90
69626;DHT22;56847;51.984;5.088;2023-04-06T01:55:38;9.30;54.00
69626;DHT22;56847;51.984;5.088;2023-04-06T01:58:17;9.40;53.80
69626;DHT22;56847;51.984;5.088;2023-04-06T02:00:44;9.30;53.60
69626;DHT22;56847;51.984;5.088;2023-04-06T02:03:11;9.40;53.70
69626;DHT22;56847;51.984;5.088;2023-04-06T02:05:38;9.40;53.80
69626;DHT22;56847;51.984;5.088;2023-04-06T02:08:25;9.40;53.60
69626;DHT22;56847;51.984;5.088;2023-04-06T02:10:53;9.30;53.60
69626;DHT22;56847;51.984;5.088;2023-04-06T02:13:28;9.30;53.60
69626;DHT22;56847;51.984;5.088;2023-04-06T02:15:55;9.30;53.60
69626;DHT22;56847;51.984;5.088;2023-04-06T02:18:25;9.40;53.60
69626;DHT22;56847;51.984;5.088;2023-04-06T02:20:52;9.40;53.80
69626;DHT22;56847;51.984;5.088;2023-04-06T02:23:19;9.40;53.80
69626;DHT22;56847;51.984;5.088;2023-04-06T02:25:46;9.40;53.70
69626;DHT22;56847;51.984;5.088;2023-04-06T02:28:13;9.40;53.90
69626;DHT22;56847;51.984;5.088;2023-04-06T02:30:41;9.40;53.60
69626;DHT22;56847;51.984;5.088;2023-04-06T02:33:08;9.40;53.60
69626;DHT22;56847;51.984;5.088;2023-04-06T02:35:46;9.40;53.80
69626;DHT22;56847;51.984;5.088;2023-04-06T02:38:13;9.40;53.70
69626;DHT22;56847;51.984;5.088;2023-04-06T02:40:40;9.40;53.70
69626;DHT22;56847;51.984;5.088;2023-04-06T02:43:24;9.40;53.80
69626;DHT22;56847;51.984;5.088;2023-04-06T02:45:59;9.40;53.80
69626;DHT22;56847;51.984;5.088;2023-04-06T02:48:27;9.30;53.70
69626;DHT22;56847;51.984;5.088;2023-04-06T02:50:54;9.30;53.50
69626;DHT22;56847;51.984;5.088;2023-04-06T02:53:21;9.30;53.60
69626;DHT22;56847;51.984;5.088;2023-04-06T02:55:48;9.30;53.70
69626;DHT22;56847;51.984;5.088;2023-04-06T02:58:15;9.20;53.80
69626;DHT22;56847;51.984;5.088;2023-04-06T03:00:46;9.20;53.90
69626;DHT22;56847;51.984;5.088;2023-04-06T03:03:13;9.20;53.80
69626;DHT22;56847;51.984;5.088;2023-04-06T03:05:42;9.10;54.00
69626;DHT22;56847;51.984;5.088;2023-04-06T03:08:09;9.10;54.20
69626;DHT22;56847;51.984;5.088;2023-04-06T03:10:42;9.10;54.20
69626;DHT22;56847;51.984;5.088;2023-04-06T03:13:09;9.10;54.30
69626;DHT22;56847;51.984;5.088;2023-04-06T03:15:56;9.10;54.40
69626;DHT22;56847;51.984;5.088;2023-04-06T03:18:24;9.00;54.50
69626;DHT22;56847;51.984;5.088;2023-04-06T03:20:53;9.00;54.60
69626;DHT22;56847;51.984;5.088;2023-04-06T03:23:34;9.00;54.70
69626;DHT22;56847;51.984;5.088;2023-04-06T03:26:02;9.00;54.80
69626;DHT22;56847;51.984;5.088;2023-04-06T03:28:30;9.00;54.90
69626;DHT22;56847;51.984;5.088;2023-04-06T03:31:03;9.10;54.90
69626;DHT22;56847;51.984;5.088;2023-04-06T03:33:42;9.10;55.00
69626;DHT22;56847;51.984;5.088;2023-04-06T03:36:15;9.10;54.90
69626;DHT22;56847;51.984;5.088;2023-04-06T03:38:43;9.10;55.10
69626;DHT22;56847;51.984;5.088;2023-04-06T03:41:12;9.10;55.10
69626;DHT22;56847;51.984;5.088;2023-04-06T03:43:43;9.10;55.20
69626;DHT22;56847;51.984;5.088;2023-04-06T03:46:10;9.10;55.30
69626;DHT22;56847;51.984;5.088;2023-04-06T03:48:37;9.10;55.30
69626;DHT22;56847;51.984;5.088;2023-04-06T03:51:06;9.10;55.40
69626;DHT22;56847;51.984;5.088;2023-04-06T03:53:33;9.10;55.50
69626;DHT22;56847;51.984;5.088;2023-04-06T03:56:01;9.10;55.50
69626;DHT22;56847;51.984;5.088;2023-04-06T03:58:30;9.10;55.60
69626;DHT22;56847;51.984;5.088;2023-04-06T04:00:58;9.10;55.60
69626;DHT22;56847;51.984;5.088;2023-04-06T04:03:24;9.10;55.60
69626;DHT22;56847;51.984;5.088;2023-04-06T04:05:54;9.10;55.60
69626;DHT22;56847;51.984;5.088;2023-04-06T04:08:25;9.10;55.60
69626;DHT22;56847;51.984;5.088;2023-04-06T04:10:52;9.10;55.80
69626;DHT22;56847;51.984;5.088;2023-04-06T04:13:19;9.20;55.70
69626;DHT22;56847;51.984;5.088;2023-04-06T04:15:49;9.20;55.60
69626;DHT22;56847;51.984;5.088;2023-04-06T04:18:16;9.20;55.60
69626;DHT22;56847;51.984;5.088;2023-04-06T04:20:43;9.10;55.80
69626;DHT22;56847;51.984;5.088;2023-04-06T04:23:12;9.20;55.80
69626;DHT22;56847;51.984;5.088;2023-04-06T04:25:40;9.20;55.80
69626;DHT22;56847;51.984;5.088;2023-04-06T04:28:07;9.20;55.80
69626;DHT22;56847;51.984;5.088;2023-04-06T04:30:35;9.20;55.90
69626;DHT22;56847;51.984;5.088;2023-04-06T04:33:06;9.20;55.80
69626;DHT22;56847;51.984;5.088;2023-04-06T04:35:33;9.20;55.80
69626;DHT22;56847;51.984;5.088;2023-04-06T04:38:00;9.10;55.90
69626;DHT22;56847;51.984;5.088;2023-04-06T04:40:28;9.10;55.90
69626;DHT22;56847;51.984;5.088;2023-04-06T04:43:03;9.10;55.90
69626;DHT22;56847;51.984;5.088;2023-04-06T04:45:33;9.10;56.00
69626;DHT22;56847;51.984;5.088;2023-04-06T04:48:12;9.10;56.00
69626;DHT22;56847;51.984;5.088;2023-04-06T04:50:49;9.10;56.10
69626;DHT22;56847;51.984;5.088;2023-04-06T04:53:19;9.10;56.10
69626;DHT22;56847;51.984;5.088;2023-04-06T04:55:46;9.00;56.10
69626;DHT22;56847;51.984;5.088;2023-04-06T04:58:14;9.10;56.30
69626;DHT22;56847;51.984;5.088;2023-04-06T05:00:51;9.10;56.30
69626;DHT22;56847;51.984;5.088;2023-04-06T05:03:23;9.10;56.40
69626;DHT22;56847;51.984;5.088;2023-04-06T05:06:01;9.10;56.40
69626;DHT22;56847;51.984;5.088;2023-04-06T05:08:32;9.10;56.40
69626;DHT22;56847;51.984;5.088;2023-04-06T05:11:00;9.10;56.40
69626;DHT22;56847;51.984;5.088;2023-04-06T05:13:30;9.00;56.30
69626;DHT22;56847;51.984;5.088;2023-04-06T05:16:00;9.00;56.30
69626;DHT22;56847;51.984;5.088;2023-04-06T05:18:31;9.00;56.30
69626;DHT22;56847;51.984;5.088;2023-04-06T05:20:59;9.00;56.30
69626;DHT22;56847;51.984;5.088;2023-04-06T05:23:44;8.90;56.30
69626;DHT22;56847;51.984;5.088;2023-04-06T05:26:11;8.90;56.40
69626;DHT22;56847;51.984;5.088;2023-04-06T05:28:38;8.90;56.40
69626;DHT22;56847;51.984;5.088;2023-04-06T05:31:05;8.90;56.40
69626;DHT22;56847;51.984;5.088;2023-04-06T05:33:42;8.90;56.50
69626;DHT22;56847;51.984;5.088;2023-04-06T05:36:11;8.90;56.70
69626;DHT22;56847;51.984;5.088;2023-04-06T05:38:43;8.90;56.80
69626;DHT22;56847;51.984;5.088;2023-04-06T05:41:28;8.90;56.90
69626;DHT22;56847;51.984;5.088;2023-04-06T05:43:55;8.90;57.00
69626;DHT22;56847;51.984;5.088;2023-04-06T05:46:23;8.90;56.90
69626;DHT22;56847;51.984;5.088;2023-04-06T05:48:52;8.90;57.00
69626;DHT22;56847;51.984;5.088;2023-04-06T05:51:23;9.00;57.10
69626;DHT22;56847;51.984;5.088;2023-04-06T05:53:51;9.10;57.10
69626;DHT22;56847;51.984;5.088;2023-04-06T05:56:21;9.10;57.00
69626;DHT22;56847;51.984;5.088;2023-04-06T05:58:48;9.20;57.00
69626;DHT22;56847;51.984;5.088;2023-04-06T06:01:21;9.30;57.10
69626;DHT22;56847;51.984;5.088;2023-04-06T06:03:48;9.30;57.00
69626;DHT22;56847;51.984;5.088;2023-04-06T06:06:19;9.40;56.90
69626;DHT22;56847;51.984;5.088;2023-04-06T06:09:09;9.50;56.70
69626;DHT22;56847;51.984;5.088;2023-04-06T06:11:41;9.50;56.70
69626;DHT22;56847;51.984;5.088;2023-04-06T06:14:11;9.60;56.70
69626;DHT22;56847;51.984;5.088;2023-04-06T06:16:40;9.70;56.70
69626;DHT22;56847;51.984;5.088;2023-04-06T06:19:09;9.80;56.60
69626;DHT22;56847;51.984;5.088;2023-04-06T06:21:36;9.80;56.50
69626;DHT22;56847;51.984;5.088;2023-04-06T06:24:05;9.80;56.50
69626;DHT22;56847;51.984;5.088;2023-04-06T06:26:32;9.90;56.60
69626;DHT22;56847;51.984;5.088;2023-04-06T06:29:03;9.90;56.60
69626;DHT22;56847;51.984;5.088;2023-04-06T06:31:42;9.90;56.60
69626;DHT22;56847;51.984;5.088;2023-04-06T06:34:09;10.00;56.60
69626;DHT22;56847;51.984;5.088;2023-04-06T06:36:37;10.00;56.60
69626;DHT22;56847;51.984;5.088;2023-04-06T06:39:07;9.90;56.70
69626;DHT22;56847;51.984;5.088;2023-04-06T06:41:34;10.00;56.80
69626;DHT22;56847;51.984;5.088;2023-04-06T06:44:03;10.00;56.80
69626;DHT22;56847;51.984;5.088;2023-04-06T06:46:30;10.00;56.80
69626;DHT22;56847;51.984;5.088;2023-04-06T06:48:58;10.00;56.90
69626;DHT22;56847;51.984;5.088;2023-04-06T06:51:25;10.00;56.90
69626;DHT22;56847;51.984;5.088;2023-04-06T06:53:52;10.10;57.10
69626;DHT22;56847;51.984;5.088;2023-04-06T06:56:19;10.10;57.10
69626;DHT22;56847;51.984;5.088;2023-04-06T06:58:46;10.10;57.10
69626;DHT22;56847;51.984;5.088;2023-04-06T07:01:14;10.20;57.00
69626;DHT22;56847;51.984;5.088;2023-04-06T07:03:42;10.20;57.10
69626;DHT22;56847;51.984;5.088;2023-04-06T07:06:09;10.30;57.00
69626;DHT22;56847;51.984;5.088;2023-04-06T07:08:39;10.30;57.00
69626;DHT22;56847;51.984;5.088;2023-04-06T07:11:06;10.40;56.90
69626;DHT22;56847;51.984;5.088;2023-04-06T07:13:33;10.40;56.90
69626;DHT22;56847;51.984;5.088;2023-04-06T07:16:01;10.50;56.80
69626;DHT22;56847;51.984;5.088;2023-04-06T07:18:28;10.50;56.90
69626;DHT22;56847;51.984;5.088;2023-04-06T07:20:55;10.60;56.70
69626;DHT22;56847;51.984;5.088;2023-04-06T07:23:22;10.70;56.70
69626;DHT22;56847;51.984;5.088;2023-04-06T07:25:49;10.80;56.50
69626;DHT22;56847;51.984;5.088;2023-04-06T07:28:17;10.90;56.50
69626;DHT22;56847;51.984;5.088;2023-04-06T07:30:47;10.90;56.50
69626;DHT22;56847;51.984;5.088;2023-04-06T07:33:14;11.00;56.40
69626;DHT22;56847;51.984;5.088;2023-04-06T07:35:41;11.00;56.50
69626;DHT22;56847;51.984;5.088;2023-04-06T07:38:09;11.10;56.40
69626;DHT22;56847;51.984;5.088;2023-04-06T07:40:37;11.20;56.40
69626;DHT22;56847;51.984;5.088;2023-04-06T07:43:03;11.30;56.40
69626;DHT22;56847;51.984;5.088;2023-04-06T07:45:31;11.50;56.20
69626;DHT22;56847;51.984;5.088;2023-04-06T07:47:59;11.50;56.00
69626;DHT22;56847;51.984;5.088;2023-04-06T07:50:27;11.60;56.00
69626;DHT22;56847;51.984;5.088;2023-04-06T07:52:58;11.70;55.90
69626;DHT22;56847;51.984;5.088;2023-04-06T07:55:27;11.80;55.80
69626;DHT22;56847;51.984;5.088;2023-04-06T07:57:53;11.80;55.70
69626;DHT22;56847;51.984;5.088;2023-04-06T08:00:20;11.90;55.70
69626;DHT22;56847;51.984;5.088;2023-04-06T08:02:48;11.80;55.70
69626;DHT22;56847;51.984;5.088;2023-04-06T08:05:15;11.80;55.70
69626;DHT22;56847;51.984;5.088;2023-04-06T08:07:42;11.90;55.80
69626;DHT22;56847;51.984;5.088;2023-04-06T08:10:09;11.90;55.80
69626;DHT22;56847;51.984;5.088;2023-04-06T08:12:37;12.00;55.60
69626;DHT22;56847;51.984;5.088;2023-04-06T08:15:04;12.10;55.60
69626;DHT22;56847;51.984;5.088;2023-04-06T08:17:31;12.10;55.50
69626;DHT22;56847;51.984;5.088;2023-04-06T08:19:59;12.10;55.60
69626;DHT22;56847;51.984;5.088;2023-04-06T08:22:26;12.10;55.60
69626;DHT22;56847;51.984;5.088;2023-04-06T08:24:53;12.10;55.60
69626;DHT22;56847;51.984;5.088;2023-04-06T08:27:20;12.10;55.70
69626;DHT22;56847;51.984;5.088;2023-04-06T08:29:49;12.20;55.80
69626;DHT22;56847;51.984;5.088;2023-04-06T08:32:16;12.30;55.70
69626;DHT22;56847;51.984;5.088;2023-04-06T08:34:43;12.40;55.70
69626;DHT22;56847;51.984;5.088;2023-04-06T08:37:09;12.40;55.70
69626;DHT22;56847;51.984;5.088;2023-04-06T08:39:36;12.40;55.70
69626;DHT22;56847;51.984;5.088;2023-04-06T08:42:03;12.40;55.60
69626;DHT22;56847;51.984;5.088;2023-04-06T08:44:34;12.40;55.40
69626;DHT22;56847;51.984;5.088;2023-04-06T08:47:04;12.40;55.50
69626;DHT22;56847;51.984;5.088;2023-04-06T08:49:32;12.40;55.40
69626;DHT22;56847;51.984;5.088;2023-04-06T08:51:59;12.30;55.30
69626;DHT22;56847;51.984;5.088;2023-04-06T08:54:27;12.30;55.50
69626;DHT22;56847;51.984;5.088;2023-04-06T08:56:54;12.40;55.40
69626;DHT22;56847;51.984;5.088;2023-04-06T08:59:25;12.40;55.50
69626;DHT22;56847;51.984;5.088;2023-04-06T09:01:53;12.50;55.40
69626;DHT22;56847;51.984;5.088;2023-04-06T09:04:21;12.50;55.50
69626;DHT22;56847;51.984;5.088;2023-04-06T09:06:48;12.60;55.40
69626;DHT22;56847;51.984;5.088;2023-04-06T09:09:16;12.60;55.50
69626;DHT22;56847;51.984;5.088;2023-04-06T09:11:47;12.70;55.70
69626;DHT22;56847;51.984;5.088;2023-04-06T09:14:15;12.80;55.80
69626;DHT22;56847;51.984;5.088;2023-04-06T09:16:44;12.90;55.90
69626;DHT22;56847;51.984;5.088;2023-04-06T09:19:15;13.00;56.20
69626;DHT22;56847;51.984;5.088;2023-04-06T09:21:42;13.10;56.40
69626;DHT22;56847;51.984;5.088;2023-04-06T09:24:09;13.10;56.60
69626;DHT22;56847;51.984;5.088;2023-04-06T09:26:47;13.20;56.90
69626;DHT22;56847;51.984;5.088;2023-04-06T09:29:24;13.40;57.00
69626;DHT22;56847;51.984;5.088;2023-04-06T09:32:04;13.40;57.00
69626;DHT22;56847;51.984;5.088;2023-04-06T09:34:33;13.50;57.00
69626;DHT22;56847;51.984;5.088;2023-04-06T09:37:01;13.50;57.00
69626;DHT22;56847;51.984;5.088;2023-04-06T09:39:38;13.50;57.10
69626;DHT22;56847;51.984;5.088;2023-04-06T09:42:05;13.50;57.20
69626;DHT22;56847;51.984;5.088;2023-04-06T09:44:32;13.40;57.50
69626;DHT22;56847;51.984;5.088;2023-04-06T09:47:00;13.30;58.00
69626;DHT22;56847;51.984;5.088;2023-04-06T09:49:31;13.20;58.40
69626;DHT22;56847;51.984;5.088;2023-04-06T09:52:02;13.20;58.70
69626;DHT22;56847;51.984;5.088;2023-04-06T09:54:31;13.20;59.10
69626;DHT22;56847;51.984;5.088;2023-04-06T09:57:15;13.30;59.40
69626;DHT22;56847;51.984;5.088;2023-04-06T09:59:54;13.30;59.60
69626;DHT22;56847;51.984;5.088;2023-04-06T10:05:18;13.40;59.50
69626;DHT22;56847;51.984;5.088;2023-04-06T10:07:48;13.50;59.50
69626;DHT22;56847;51.984;5.088;2023-04-06T10:10:28;13.50;59.60
69626;DHT22;56847;51.984;5.088;2023-04-06T10:12:56;13.40;59.80
69626;DHT22;56847;51.984;5.088;2023-04-06T10:15:23;13.40;60.00
69626;DHT22;56847;51.984;5.088;2023-04-06T10:17:51;13.40;60.30
69626;DHT22;56847;51.984;5.088;2023-04-06T10:20:25;13.40;60.30
69626;DHT22;56847;51.984;5.088;2023-04-06T10:23:15;13.30;60.40
69626;DHT22;56847;51.984;5.088;2023-04-06T10:25:59;13.30;61.00
69626;DHT22;56847;51.984;5.088;2023-04-06T10:28:35;13.30;61.20
69626;DHT22;56847;51.984;5.088;2023-04-06T10:31:06;13.30;61.40
69626;DHT22;56847;51.984;5.088;2023-04-06T10:33:33;13.20;61.70
69626;DHT22;56847;51.984;5.088;2023-04-06T10:36:23;13.20;62.00
69626;DHT22;56847;51.984;5.088;2023-04-06T10:38:55;13.30;62.20
69626;DHT22;56847;51.984;5.088;2023-04-06T10:41:23;13.30;62.10
69626;DHT22;56847;51.984;5.088;2023-04-06T10:43:56;13.20;62.30
69626;DHT22;56847;51.984;5.088;2023-04-06T10:46:29;13.20;62.50
69626;DHT22;56847;51.984;5.088;2023-04-06T10:48:57;13.20;62.90
69626;DHT22;56847;51.984;5.088;2023-04-06T10:51:28;13.20;63.00
69626;DHT22;56847;51.984;5.088;2023-04-06T10:53:59;13.20;63.10
69626;DHT22;56847;51.984;5.088;2023-04-06T10:56:28;13.20;63.20
69626;DHT22;56847;51.984;5.088;2023-04-06T10:58:56;13.20;63.40
69626;DHT22;56847;51.984;5.088;2023-04-06T11:01:24;13.30;63.80
69626;DHT22;56847;51.984;5.088;2023-04-06T11:03:56;13.40;64.00
69626;DHT22;56847;51.984;5.088;2023-04-06T11:06:27;13.50;63.80
69626;DHT22;56847;51.984;5.088;2023-04-06T11:08:56;13.50;63.80
69626;DHT22;56847;51.984;5.088;2023-04-06T11:11:24;13.50;64.00
69626;DHT22;56847;51.984;5.088;2023-04-06T11:13:55;13.40;64.00
69626;DHT22;56847;51.984;5.088;2023-04-06T11:16:32;13.30;64.10
69626;DHT22;56847;51.984;5.088;2023-04-06T11:19:02;13.30;64.40
69626;DHT22;56847;51.984;5.088;2023-04-06T11:26:46;13.40;64.90
69626;DHT22;56847;51.984;5.088;2023-04-06T11:29:16;13.40;64.90
69626;DHT22;56847;51.984;5.088;2023-04-06T11:31:58;13.40;65.10
69626;DHT22;56847;51.984;5.088;2023-04-06T11:34:27;13.40;65.10
69626;DHT22;56847;51.984;5.088;2023-04-06T11:37:00;13.40;65.40
69626;DHT22;56847;51.984;5.088;2023-04-06T11:39:29;13.50;65.50
69626;DHT22;56847;51.984;5.088;2023-04-06T11:41:59;13.60;65.50
69626;DHT22;56847;51.984;5.088;2023-04-06T11:44:40;13.60;65.30
69626;DHT22;56847;51.984;5.088;2023-04-06T11:47:12;13.60;65.40
69626;DHT22;56847;51.984;5.088;2023-04-06T11:49:44;13.60;65.70
69626;DHT22;56847;51.984;5.088;2023-04-06T11:52:26;13.70;65.60
69626;DHT22;56847;51.984;5.088;2023-04-06T11:54:54;13.80;65.60
69626;DHT22;56847;51.984;5.088;2023-04-06T11:57:24;13.90;65.40
69626;DHT22;56847;51.984;5.088;2023-04-06T11:59:52;13.90;65.20
69626;DHT22;56847;51.984;5.088;2023-04-06T12:02:19;14.00;65.20
69626;DHT22;56847;51.984;5.088;2023-04-06T12:04:46;14.00;65.10
69626;DHT22;56847;51.984;5.088;2023-04-06T12:07:13;13.90;65.00
69626;DHT22;56847;51.984;5.088;2023-04-06T12:09:41;13.80;65.10
69626;DHT22;56847;51.984;5.088;2023-04-06T12:12:10;13.70;65.00
69626;DHT22;56847;51.984;5.088;2023-04-06T12:14:37;13.60;65.20
69626;DHT22;56847;51.984;5.088;2023-04-06T12:17:04;13.50;65.30
69626;DHT22;56847;51.984;5.088;2023-04-06T12:19:32;13.40;65.50
69626;DHT22;56847;51.984;5.088;2023-04-06T12:21:59;13.30;65.90
69626;DHT22;56847;51.984;5.088;2023-04-06T12:24:27;13.20;66.10
69626;DHT22;56847;51.984;5.088;2023-04-06T12:27:01;13.20;66.60
69626;DHT22;56847;51.984;5.088;2023-04-06T12:29:36;13.10;67.00
69626;DHT22;56847;51.984;5.088;2023-04-06T12:32:04;13.20;67.00
69626;DHT22;56847;51.984;5.088;2023-04-06T12:34:32;13.20;67.00
69626;DHT22;56847;51.984;5.088;2023-04-06T12:36:59;13.10;67.10
69626;DHT22;56847;51.984;5.088;2023-04-06T12:39:27;13.10;67.30
69626;DHT22;56847;51.984;5.088;2023-04-06T12:41:54;13.00;67.50
69626;DHT22;56847;51.984;5.088;2023-04-06T12:44:23;13.00;67.50
69626;DHT22;56847;51.984;5.088;2023-04-06T12:46:52;12.90;67.60
69626;DHT22;56847;51.984;5.088;2023-04-06T12:49:19;12.90;68.00
69626;DHT22;56847;51.984;5.088;2023-04-06T12:51:47;12.90;68.00
69626;DHT22;56847;51.984;5.088;2023-04-06T12:54:14;12.80;68.10
69626;DHT22;56847;51.984;5.088;2023-04-06T12:56:41;12.80;68.20
69626;DHT22;56847;51.984;5.088;2023-04-06T12:59:08;12.80;68.40
69626;DHT22;56847;51.984;5.088;2023-04-06T13:01:38;12.80;68.60
69626;DHT22;56847;51.984;5.088;2023-04-06T13:04:05;12.90;68.70
69626;DHT22;56847;51.984;5.088;2023-04-06T13:06:36;12.90;68.60
69626;DHT22;56847;51.984;5.088;2023-04-06T13:09:07;12.80;68.60
69626;DHT22;56847;51.984;5.088;2023-04-06T13:11:43;12.80;68.90
69626;DHT22;56847;51.984;5.088;2023-04-06T13:14:13;12.70;69.00
69626;DHT22;56847;51.984;5.088;2023-04-06T13:16:40;12.70;69.20
69626;DHT22;56847;51.984;5.088;2023-04-06T13:19:08;12.60;69.30
69626;DHT22;56847;51.984;5.088;2023-04-06T13:21:39;12.60;69.40
69626;DHT22;56847;51.984;5.088;2023-04-06T13:24:06;12.60;69.70
69626;DHT22;56847;51.984;5.088;2023-04-06T13:26:36;12.60;69.80
69626;DHT22;56847;51.984;5.088;2023-04-06T13:29:03;12.70;69.90
69626;DHT22;56847;51.984;5.088;2023-04-06T13:31:30;12.70;69.90
69626;DHT22;56847;51.984;5.088;2023-04-06T13:33:58;12.70;69.80
69626;DHT22;56847;51.984;5.088;2023-04-06T13:36:25;12.70;69.80
69626;DHT22;56847;51.984;5.088;2023-04-06T13:38:53;12.70;69.90
69626;DHT22;56847;51.984;5.088;2023-04-06T13:41:23;12.60;70.00
69626;DHT22;56847;51.984;5.088;2023-04-06T13:43:52;12.60;70.20
69626;DHT22;56847;51.984;5.088;2023-04-06T13:46:23;12.60;70.20
69626;DHT22;56847;51.984;5.088;2023-04-06T13:48:51;12.50;70.40
69626;DHT22;56847;51.984;5.088;2023-04-06T13:51:18;12.50;70.40
69626;DHT22;56847;51.984;5.088;2023-04-06T13:53:45;12.50;70.60
69626;DHT22;56847;51.984;5.088;2023-04-06T13:56:13;12.50;70.50
69626;DHT22;56847;51.984;5.088;2023-04-06T13:58:40;12.50;70.50
69626;DHT22;56847;51.984;5.088;2023-04-06T14:01:11;12.40;70.60
69626;DHT22;56847;51.984;5.088;2023-04-06T14:03:38;12.30;70.90
69626;DHT22;56847;51.984;5.088;2023-04-06T14:06:12;12.30;71.60
69626;DHT22;56847;51.984;5.088;2023-04-06T14:08:43;12.30;71.90
69626;DHT22;56847;51.984;5.088;2023-04-06T14:11:19;12.20;72.00
69626;DHT22;56847;51.984;5.088;2023-04-06T14:13:46;12.20;72.30
69626;DHT22;56847;51.984;5.088;2023-04-06T14:16:13;12.10;72.60
69626;DHT22;56847;51.984;5.088;2023-04-06T14:18:40;12.10;72.70
69626;DHT22;56847;51.984;5.088;2023-04-06T14:21:11;12.10;72.90
69626;DHT22;56847;51.984;5.088;2023-04-06T14:23:41;12.10;73.10
69626;DHT22;56847;51.984;5.088;2023-04-06T14:26:09;12.10;73.30
69626;DHT22;56847;51.984;5.088;2023-04-06T14:28:38;12.00;73.40
69626;DHT22;56847;51.984;5.088;2023-04-06T14:31:11;12.00;73.70
69626;DHT22;56847;51.984;5.088;2023-04-06T14:33:42;11.90;73.90
69626;DHT22;56847;51.984;5.088;2023-04-06T14:36:18;11.90;74.10
69626;DHT22;56847;51.984;5.088;2023-04-06T14:38:46;11.90;74.40
69626;DHT22;56847;51.984;5.088;2023-04-06T14:41:18;12.00;74.60
69626;DHT22;56847;51.984;5.088;2023-04-06T14:43:48;11.90;74.70
69626;DHT22;56847;51.984;5.088;2023-04-06T14:46:15;11.90;74.80
69626;DHT22;56847;51.984;5.088;2023-04-06T14:48:44;12.00;74.90
69626;DHT22;56847;51.984;5.088;2023-04-06T14:51:12;12.00;75.10
69626;DHT22;56847;51.984;5.088;2023-04-06T14:53:40;12.00;75.30
69626;DHT22;56847;51.984;5.088;2023-04-06T14:56:07;12.00;75.30
69626;DHT22;56847;51.984;5.088;2023-04-06T14:58:34;12.00;75.40
69626;DHT22;56847;51.984;5.088;2023-04-06T15:01:01;12.00;75.50
69626;DHT22;56847;51.984;5.088;2023-04-06T15:03:29;12.00;75.70
69626;DHT22;56847;51.984;5.088;2023-04-06T15:05:57;11.90;75.70
69626;DHT22;56847;51.984;5.088;2023-04-06T15:08:24;11.90;75.90
69626;DHT22;56847;51.984;5.088;2023-04-06T15:10:51;11.90;76.00
69626;DHT22;56847;51.984;5.088;2023-04-06T15:13:22;11.80;76.20
69626;DHT22;56847;51.984;5.088;2023-04-06T15:15:50;11.80;76.30
69626;DHT22;56847;51.984;5.088;2023-04-06T15:18:18;11.80;76.40
69626;DHT22;56847;51.984;5.088;2023-04-06T15:20:45;11.80;76.60
69626;DHT22;56847;51.984;5.088;2023-04-06T15:23:12;11.80;76.70
69626;DHT22;56847;51.984;5.088;2023-04-06T15:25:39;11.80;76.60
69626;DHT22;56847;51.984;5.088;2023-04-06T15:28:10;11.80;76.70
69626;DHT22;56847;51.984;5.088;2023-04-06T15:30:40;11.80;76.80
69626;DHT22;56847;51.984;5.088;2023-04-06T15:33:12;11.70;76.90
69626;DHT22;56847;51.984;5.088;2023-04-06T15:35:39;11.70;77.10
69626;DHT22;56847;51.984;5.088;2023-04-06T15:38:11;11.70;77.20
69626;DHT22;56847;51.984;5.088;2023-04-06T15:40:46;11.80;77.10
69626;DHT22;56847;51.984;5.088;2023-04-06T15:43:14;11.70;77.20
69626;DHT22;56847;51.984;5.088;2023-04-06T15:45:41;11.70;77.20
69626;DHT22;56847;51.984;5.088;2023-04-06T15:48:11;11.70;77.40
69626;DHT22;56847;51.984;5.088;2023-04-06T15:50:37;11.60;77.50
69626;DHT22;56847;51.984;5.088;2023-04-06T15:53:04;11.70;77.50
69626;DHT22;56847;51.984;5.088;2023-04-06T15:55:32;11.60;77.40
69626;DHT22;56847;51.984;5.088;2023-04-06T15:57:59;11.60;77.60
69626;DHT22;56847;51.984;5.088;2023-04-06T16:00:26;11.60;77.60
69626;DHT22;56847;51.984;5.088;2023-04-06T16:02:54;11.60;77.70
69626;DHT22;56847;51.984;5.088;2023-04-06T16:05:22;11.60;77.80
69626;DHT22;56847;51.984;5.088;2023-04-06T16:07:50;11.60;77.90
69626;DHT22;56847;51.984;5.088;2023-04-06T16:10:19;11.60;78.00
69626;DHT22;56847;51.984;5.088;2023-04-06T16:12:46;11.60;78.00
69626;DHT22;56847;51.984;5.088;2023-04-06T16:15:13;11.60;78.10
69626;DHT22;56847;51.984;5.088;2023-04-06T16:17:40;11.60;78.10
69626;DHT22;56847;51.984;5.088;2023-04-06T16:20:09;11.70;78.30
69626;DHT22;56847;51.984;5.088;2023-04-06T16:22:37;11.70;78.30
69626;DHT22;56847;51.984;5.088;2023-04-06T16:25:04;11.70;78.20
69626;DHT22;56847;51.984;5.088;2023-04-06T16:27:31;11.70;78.10
69626;DHT22;56847;51.984;5.088;2023-04-06T16:29:58;11.70;78.10
69626;DHT22;56847;51.984;5.088;2023-04-06T16:32:28;11.70;78.30
69626;DHT22;56847;51.984;5.088;2023-04-06T16:34:55;11.70;78.40
69626;DHT22;56847;51.984;5.088;2023-04-06T16:37:22;11.70;78.50
69626;DHT22;56847;51.984;5.088;2023-04-06T16:39:49;11.80;78.60
69626;DHT22;56847;51.984;5.088;2023-04-06T16:42:15;11.80;78.30
69626;DHT22;56847;51.984;5.088;2023-04-06T16:44:46;11.80;78.30
69626;DHT22;56847;51.984;5.088;2023-04-06T16:47:16;11.80;78.40
69626;DHT22;56847;51.984;5.088;2023-04-06T16:49:43;11.80;78.40
69626;DHT22;56847;51.984;5.088;2023-04-06T16:52:10;11.80;78.40
69626;DHT22;56847;51.984;5.088;2023-04-06T16:54:37;11.80;78.40
69626;DHT22;56847;51.984;5.088;2023-04-06T16:57:04;11.80;78.50
69626;DHT22;56847;51.984;5.088;2023-04-06T16:59:32;11.80;78.60
69626;DHT22;56847;51.984;5.088;2023-04-06T17:01:59;11.70;78.70
69626;DHT22;56847;51.984;5.088;2023-04-06T17:04:26;11.80;78.70
69626;DHT22;56847;51.984;5.088;2023-04-06T17:06:53;11.80;78.60
69626;DHT22;56847;51.984;5.088;2023-04-06T17:09:20;11.70;78.60
69626;DHT22;56847;51.984;5.088;2023-04-06T17:11:49;11.70;78.70